Terminal Aerodrome Forecast
Issued by NWS

Home | Current Version | Previous Version | Text Only | Print | Product List | Glossary On
Versions: 1 2 3 4 5 6 7 8 9 10 11 12 13 14 15 16
000
FTUS45 KRIW 270500
TAFLND
TAF
KLND 270523Z 2706/2806 VRB04KT P6SM VCSH SCT015 BKN030
      TEMPO 2706/2709 3SM -SN OVC015
     FM271200 VRB04KT P6SM SCT040
     FM272200 VRB04KT P6SM SCT060 BKN100=

USA.gov is the U.S. government's official web portal to all federal, state and local government web resources and services.